sensor_id;sensor_type;location;lat;lon;timestamp;P1;durP1;ratioP1;P2;durP2;ratioP2
21480;SDS011;10902;48.158;8.634;2022-11-23T00:00:24;8.50;;;3.05;;
21480;SDS011;10902;48.158;8.634;2022-11-23T00:02:53;7.30;;;2.40;;
21480;SDS011;10902;48.158;8.634;2022-11-23T00:05:23;9.95;;;3.50;;
21480;SDS011;10902;48.158;8.634;2022-11-23T00:07:49;7.97;;;2.35;;
21480;SDS011;10902;48.158;8.634;2022-11-23T00:10:15;10.70;;;2.97;;
21480;SDS011;10902;48.158;8.634;2022-11-23T00:12:41;8.55;;;2.67;;
21480;SDS011;10902;48.158;8.634;2022-11-23T00:15:07;6.63;;;2.75;;
21480;SDS011;10902;48.158;8.634;2022-11-23T00:17:32;7.40;;;2.30;;
21480;SDS011;10902;48.158;8.634;2022-11-23T00:19:58;8.48;;;3.60;;
21480;SDS011;10902;48.158;8.634;2022-11-23T00:22:24;7.57;;;3.10;;
21480;SDS011;10902;48.158;8.634;2022-11-23T00:24:49;9.13;;;2.63;;
21480;SDS011;10902;48.158;8.634;2022-11-23T00:27:15;7.95;;;2.35;;
21480;SDS011;10902;48.158;8.634;2022-11-23T00:29:41;7.00;;;2.85;;
21480;SDS011;10902;48.158;8.634;2022-11-23T00:32:06;7.43;;;2.53;;
21480;SDS011;10902;48.158;8.634;2022-11-23T00:34:32;8.60;;;3.20;;
21480;SDS011;10902;48.158;8.634;2022-11-23T00:36:58;6.43;;;2.70;;
21480;SDS011;10902;48.158;8.634;2022-11-23T00:39:23;9.50;;;1.90;;
21480;SDS011;10902;48.158;8.634;2022-11-23T00:41:49;6.75;;;2.85;;
21480;SDS011;10902;48.158;8.634;2022-11-23T00:44:15;8.88;;;2.67;;
21480;SDS011;10902;48.158;8.634;2022-11-23T00:46:40;5.43;;;2.10;;
21480;SDS011;10902;48.158;8.634;2022-11-23T00:49:06;5.43;;;2.13;;
21480;SDS011;10902;48.158;8.634;2022-11-23T00:51:32;7.40;;;2.20;;
21480;SDS011;10902;48.158;8.634;2022-11-23T00:53:59;6.80;;;2.40;;
21480;SDS011;10902;48.158;8.634;2022-11-23T00:56:27;8.27;;;2.63;;
21480;SDS011;10902;48.158;8.634;2022-11-23T00:58:54;6.75;;;2.40;;
21480;SDS011;10902;48.158;8.634;2022-11-23T01:01:22;7.70;;;2.17;;
21480;SDS011;10902;48.158;8.634;2022-11-23T01:03:50;6.93;;;2.00;;
21480;SDS011;10902;48.158;8.634;2022-11-23T01:06:22;6.60;;;2.80;;
21480;SDS011;10902;48.158;8.634;2022-11-23T01:08:57;7.93;;;2.35;;
21480;SDS011;10902;48.158;8.634;2022-11-23T01:11:25;10.13;;;2.95;;
21480;SDS011;10902;48.158;8.634;2022-11-23T01:13:52;10.30;;;4.03;;
21480;SDS011;10902;48.158;8.634;2022-11-23T01:16:18;8.35;;;3.70;;
21480;SDS011;10902;48.158;8.634;2022-11-23T01:18:52;10.98;;;2.90;;
21480;SDS011;10902;48.158;8.634;2022-11-23T01:21:21;7.53;;;2.95;;
21480;SDS011;10902;48.158;8.634;2022-11-23T01:23:48;6.90;;;2.90;;
21480;SDS011;10902;48.158;8.634;2022-11-23T01:26:14;10.98;;;3.83;;
21480;SDS011;10902;48.158;8.634;2022-11-23T01:28:39;9.00;;;2.92;;
21480;SDS011;10902;48.158;8.634;2022-11-23T01:31:06;8.52;;;2.78;;
21480;SDS011;10902;48.158;8.634;2022-11-23T01:33:36;7.82;;;2.95;;
21480;SDS011;10902;48.158;8.634;2022-11-23T01:38:58;8.85;;;2.80;;
21480;SDS011;10902;48.158;8.634;2022-11-23T01:41:26;8.88;;;3.38;;
21480;SDS011;10902;48.158;8.634;2022-11-23T01:43:54;9.10;;;3.50;;
21480;SDS011;10902;48.158;8.634;2022-11-23T01:46:20;8.00;;;3.00;;
21480;SDS011;10902;48.158;8.634;2022-11-23T01:48:53;7.65;;;2.85;;
21480;SDS011;10902;48.158;8.634;2022-11-23T01:51:25;7.85;;;3.03;;
21480;SDS011;10902;48.158;8.634;2022-11-23T01:53:53;7.25;;;2.78;;
21480;SDS011;10902;48.158;8.634;2022-11-23T01:56:25;9.48;;;2.63;;
21480;SDS011;10902;48.158;8.634;2022-11-23T01:58:53;9.57;;;2.45;;
21480;SDS011;10902;48.158;8.634;2022-11-23T02:01:22;9.48;;;3.00;;
21480;SDS011;10902;48.158;8.634;2022-11-23T02:03:47;12.18;;;3.08;;
21480;SDS011;10902;48.158;8.634;2022-11-23T02:06:16;7.28;;;2.35;;
21480;SDS011;10902;48.158;8.634;2022-11-23T02:08:43;6.82;;;2.97;;
21480;SDS011;10902;48.158;8.634;2022-11-23T02:11:09;11.27;;;3.38;;
21480;SDS011;10902;48.158;8.634;2022-11-23T02:13:37;8.18;;;3.72;;
21480;SDS011;10902;48.158;8.634;2022-11-23T02:16:03;8.55;;;2.97;;
21480;SDS011;10902;48.158;8.634;2022-11-23T02:18:30;9.02;;;3.40;;
21480;SDS011;10902;48.158;8.634;2022-11-23T02:20:57;9.75;;;2.83;;
21480;SDS011;10902;48.158;8.634;2022-11-23T02:26:21;8.02;;;3.10;;
21480;SDS011;10902;48.158;8.634;2022-11-23T02:28:52;9.90;;;3.55;;
21480;SDS011;10902;48.158;8.634;2022-11-23T02:31:22;9.23;;;3.30;;
21480;SDS011;10902;48.158;8.634;2022-11-23T02:33:47;9.93;;;3.38;;
21480;SDS011;10902;48.158;8.634;2022-11-23T02:36:27;7.28;;;3.50;;
21480;SDS011;10902;48.158;8.634;2022-11-23T02:39:06;10.02;;;3.53;;
21480;SDS011;10902;48.158;8.634;2022-11-23T02:42:07;12.13;;;3.72;;
21480;SDS011;10902;48.158;8.634;2022-11-23T02:44:45;8.00;;;2.88;;
21480;SDS011;10902;48.158;8.634;2022-11-23T02:47:22;8.50;;;3.20;;
21480;SDS011;10902;48.158;8.634;2022-11-23T02:49:48;9.57;;;3.38;;
21480;SDS011;10902;48.158;8.634;2022-11-23T02:52:14;13.57;;;3.70;;
21480;SDS011;10902;48.158;8.634;2022-11-23T02:54:40;10.27;;;3.20;;
21480;SDS011;10902;48.158;8.634;2022-11-23T02:57:06;7.90;;;2.97;;
21480;SDS011;10902;48.158;8.634;2022-11-23T02:59:32;12.27;;;3.45;;
21480;SDS011;10902;48.158;8.634;2022-11-23T03:01:58;10.48;;;3.30;;
21480;SDS011;10902;48.158;8.634;2022-11-23T03:04:25;7.78;;;3.00;;
21480;SDS011;10902;48.158;8.634;2022-11-23T03:06:51;8.82;;;2.70;;
21480;SDS011;10902;48.158;8.634;2022-11-23T03:09:17;13.05;;;2.72;;
21480;SDS011;10902;48.158;8.634;2022-11-23T03:11:42;9.68;;;3.38;;
21480;SDS011;10902;48.158;8.634;2022-11-23T03:14:08;6.15;;;2.78;;
21480;SDS011;10902;48.158;8.634;2022-11-23T03:16:33;8.75;;;2.60;;
21480;SDS011;10902;48.158;8.634;2022-11-23T03:18:59;8.98;;;2.75;;
21480;SDS011;10902;48.158;8.634;2022-11-23T03:21:25;6.40;;;2.17;;
21480;SDS011;10902;48.158;8.634;2022-11-23T03:23:51;7.30;;;2.50;;
21480;SDS011;10902;48.158;8.634;2022-11-23T03:26:16;7.60;;;2.53;;
21480;SDS011;10902;48.158;8.634;2022-11-23T03:28:42;6.47;;;2.30;;
21480;SDS011;10902;48.158;8.634;2022-11-23T03:31:07;6.13;;;2.38;;
21480;SDS011;10902;48.158;8.634;2022-11-23T03:33:33;10.57;;;2.90;;
21480;SDS011;10902;48.158;8.634;2022-11-23T03:35:59;5.80;;;2.25;;
21480;SDS011;10902;48.158;8.634;2022-11-23T03:38:25;8.70;;;3.10;;
21480;SDS011;10902;48.158;8.634;2022-11-23T03:40:51;7.97;;;2.38;;
21480;SDS011;10902;48.158;8.634;2022-11-23T03:43:16;10.38;;;2.40;;
21480;SDS011;10902;48.158;8.634;2022-11-23T03:45:43;7.03;;;2.30;;
21480;SDS011;10902;48.158;8.634;2022-11-23T03:48:09;8.27;;;3.13;;
21480;SDS011;10902;48.158;8.634;2022-11-23T03:50:34;6.60;;;2.58;;
21480;SDS011;10902;48.158;8.634;2022-11-23T03:53:00;9.77;;;2.58;;
21480;SDS011;10902;48.158;8.634;2022-11-23T03:55:25;11.52;;;2.47;;
21480;SDS011;10902;48.158;8.634;2022-11-23T03:57:51;8.57;;;3.08;;
21480;SDS011;10902;48.158;8.634;2022-11-23T04:00:23;9.38;;;3.08;;
21480;SDS011;10902;48.158;8.634;2022-11-23T04:02:53;10.50;;;2.33;;
21480;SDS011;10902;48.158;8.634;2022-11-23T04:05:18;12.93;;;3.00;;
21480;SDS011;10902;48.158;8.634;2022-11-23T04:07:47;8.18;;;3.35;;
21480;SDS011;10902;48.158;8.634;2022-11-23T04:10:14;6.80;;;2.08;;
21480;SDS011;10902;48.158;8.634;2022-11-23T04:12:40;7.47;;;2.60;;
21480;SDS011;10902;48.158;8.634;2022-11-23T04:15:06;8.18;;;2.47;;
21480;SDS011;10902;48.158;8.634;2022-11-23T04:17:32;7.80;;;2.50;;
21480;SDS011;10902;48.158;8.634;2022-11-23T04:19:58;6.15;;;2.55;;
21480;SDS011;10902;48.158;8.634;2022-11-23T04:22:23;8.30;;;2.50;;
21480;SDS011;10902;48.158;8.634;2022-11-23T04:24:49;12.65;;;3.53;;
21480;SDS011;10902;48.158;8.634;2022-11-23T04:27:14;5.75;;;1.92;;
21480;SDS011;10902;48.158;8.634;2022-11-23T04:29:40;7.38;;;2.20;;
21480;SDS011;10902;48.158;8.634;2022-11-23T04:32:06;7.70;;;2.35;;
21480;SDS011;10902;48.158;8.634;2022-11-23T04:34:31;8.90;;;2.10;;
21480;SDS011;10902;48.158;8.634;2022-11-23T04:36:57;14.52;;;3.25;;
21480;SDS011;10902;48.158;8.634;2022-11-23T04:39:22;9.35;;;2.72;;
21480;SDS011;10902;48.158;8.634;2022-11-23T04:41:48;9.45;;;2.55;;
21480;SDS011;10902;48.158;8.634;2022-11-23T04:44:13;8.18;;;3.20;;
21480;SDS011;10902;48.158;8.634;2022-11-23T04:46:39;9.02;;;2.60;;
21480;SDS011;10902;48.158;8.634;2022-11-23T04:49:04;11.32;;;3.45;;
21480;SDS011;10902;48.158;8.634;2022-11-23T04:51:30;8.40;;;2.45;;
21480;SDS011;10902;48.158;8.634;2022-11-23T04:53:56;8.68;;;2.88;;
21480;SDS011;10902;48.158;8.634;2022-11-23T04:56:21;10.52;;;2.70;;
21480;SDS011;10902;48.158;8.634;2022-11-23T04:58:47;10.65;;;2.70;;
21480;SDS011;10902;48.158;8.634;2022-11-23T05:01:12;7.43;;;2.78;;
21480;SDS011;10902;48.158;8.634;2022-11-23T05:03:38;11.32;;;2.85;;
21480;SDS011;10902;48.158;8.634;2022-11-23T05:06:03;10.70;;;3.45;;
21480;SDS011;10902;48.158;8.634;2022-11-23T05:08:31;9.23;;;3.70;;
21480;SDS011;10902;48.158;8.634;2022-11-23T05:10:57;9.88;;;3.00;;
21480;SDS011;10902;48.158;8.634;2022-11-23T05:13:22;12.15;;;3.90;;
21480;SDS011;10902;48.158;8.634;2022-11-23T05:15:48;9.00;;;2.97;;
21480;SDS011;10902;48.158;8.634;2022-11-23T05:18:14;11.98;;;4.18;;
21480;SDS011;10902;48.158;8.634;2022-11-23T05:20:39;14.02;;;3.80;;
21480;SDS011;10902;48.158;8.634;2022-11-23T05:23:05;9.27;;;3.40;;
21480;SDS011;10902;48.158;8.634;2022-11-23T05:25:31;10.75;;;3.33;;
21480;SDS011;10902;48.158;8.634;2022-11-23T05:27:56;11.98;;;3.90;;
21480;SDS011;10902;48.158;8.634;2022-11-23T05:30:22;8.60;;;3.10;;
21480;SDS011;10902;48.158;8.634;2022-11-23T05:32:48;13.23;;;3.67;;
21480;SDS011;10902;48.158;8.634;2022-11-23T05:35:14;8.50;;;2.65;;
21480;SDS011;10902;48.158;8.634;2022-11-23T05:37:40;9.68;;;2.92;;
21480;SDS011;10902;48.158;8.634;2022-11-23T05:40:05;6.60;;;2.55;;
21480;SDS011;10902;48.158;8.634;2022-11-23T05:42:32;9.18;;;3.15;;
21480;SDS011;10902;48.158;8.634;2022-11-23T05:44:57;10.88;;;3.70;;
21480;SDS011;10902;48.158;8.634;2022-11-23T05:47:23;13.50;;;3.17;;
21480;SDS011;10902;48.158;8.634;2022-11-23T05:49:48;8.63;;;3.15;;
21480;SDS011;10902;48.158;8.634;2022-11-23T05:52:15;12.73;;;3.83;;
21480;SDS011;10902;48.158;8.634;2022-11-23T05:54:41;12.90;;;4.40;;
21480;SDS011;10902;48.158;8.634;2022-11-23T05:57:07;11.07;;;4.78;;
21480;SDS011;10902;48.158;8.634;2022-11-23T05:59:33;11.15;;;3.95;;
21480;SDS011;10902;48.158;8.634;2022-11-23T06:01:58;12.80;;;4.30;;
21480;SDS011;10902;48.158;8.634;2022-11-23T06:04:24;11.40;;;4.63;;
21480;SDS011;10902;48.158;8.634;2022-11-23T06:06:50;8.55;;;3.42;;
21480;SDS011;10902;48.158;8.634;2022-11-23T06:09:18;10.63;;;3.40;;
21480;SDS011;10902;48.158;8.634;2022-11-23T06:11:44;11.60;;;4.40;;
21480;SDS011;10902;48.158;8.634;2022-11-23T06:14:12;11.95;;;4.72;;
21480;SDS011;10902;48.158;8.634;2022-11-23T06:16:37;10.63;;;4.00;;
21480;SDS011;10902;48.158;8.634;2022-11-23T06:19:03;11.65;;;4.07;;
21480;SDS011;10902;48.158;8.634;2022-11-23T06:21:29;12.90;;;4.05;;
21480;SDS011;10902;48.158;8.634;2022-11-23T06:23:54;12.32;;;5.28;;
21480;SDS011;10902;48.158;8.634;2022-11-23T06:26:20;19.02;;;6.43;;
21480;SDS011;10902;48.158;8.634;2022-11-23T06:28:45;10.77;;;4.80;;
21480;SDS011;10902;48.158;8.634;2022-11-23T06:31:11;14.95;;;5.07;;
21480;SDS011;10902;48.158;8.634;2022-11-23T06:33:37;11.75;;;4.38;;
21480;SDS011;10902;48.158;8.634;2022-11-23T06:36:02;11.70;;;4.88;;
21480;SDS011;10902;48.158;8.634;2022-11-23T06:38:28;12.10;;;5.30;;
21480;SDS011;10902;48.158;8.634;2022-11-23T06:41:00;17.10;;;6.03;;
21480;SDS011;10902;48.158;8.634;2022-11-23T06:43:26;19.77;;;6.60;;
21480;SDS011;10902;48.158;8.634;2022-11-23T06:45:53;13.50;;;5.80;;
21480;SDS011;10902;48.158;8.634;2022-11-23T06:48:19;18.75;;;7.20;;
21480;SDS011;10902;48.158;8.634;2022-11-23T06:50:45;16.35;;;6.43;;
21480;SDS011;10902;48.158;8.634;2022-11-23T06:53:11;14.75;;;7.55;;
21480;SDS011;10902;48.158;8.634;2022-11-23T06:55:37;33.58;;;10.93;;
21480;SDS011;10902;48.158;8.634;2022-11-23T06:58:03;21.35;;;10.13;;
21480;SDS011;10902;48.158;8.634;2022-11-23T07:00:29;24.25;;;11.57;;
21480;SDS011;10902;48.158;8.634;2022-11-23T07:02:55;26.05;;;12.18;;
21480;SDS011;10902;48.158;8.634;2022-11-23T07:05:21;30.40;;;12.00;;
21480;SDS011;10902;48.158;8.634;2022-11-23T07:07:47;27.33;;;12.88;;
21480;SDS011;10902;48.158;8.634;2022-11-23T07:10:13;32.10;;;13.25;;
21480;SDS011;10902;48.158;8.634;2022-11-23T07:12:39;28.10;;;12.55;;
21480;SDS011;10902;48.158;8.634;2022-11-23T07:15:05;26.30;;;12.05;;
21480;SDS011;10902;48.158;8.634;2022-11-23T07:17:31;27.75;;;12.88;;
21480;SDS011;10902;48.158;8.634;2022-11-23T07:19:57;27.92;;;12.40;;
21480;SDS011;10902;48.158;8.634;2022-11-23T07:22:23;28.08;;;12.38;;
21480;SDS011;10902;48.158;8.634;2022-11-23T07:24:48;29.15;;;13.02;;
21480;SDS011;10902;48.158;8.634;2022-11-23T07:27:17;37.17;;;15.18;;
21480;SDS011;10902;48.158;8.634;2022-11-23T07:29:44;32.55;;;14.48;;
21480;SDS011;10902;48.158;8.634;2022-11-23T07:32:09;36.80;;;16.08;;
21480;SDS011;10902;48.158;8.634;2022-11-23T07:34:35;40.83;;;17.42;;
21480;SDS011;10902;48.158;8.634;2022-11-23T07:37:01;48.22;;;19.08;;
21480;SDS011;10902;48.158;8.634;2022-11-23T07:39:28;47.80;;;19.55;;
21480;SDS011;10902;48.158;8.634;2022-11-23T07:41:54;55.33;;;20.27;;
21480;SDS011;10902;48.158;8.634;2022-11-23T07:44:20;53.08;;;21.17;;
21480;SDS011;10902;48.158;8.634;2022-11-23T07:46:46;47.55;;;19.00;;
21480;SDS011;10902;48.158;8.634;2022-11-23T07:49:12;41.50;;;18.20;;
21480;SDS011;10902;48.158;8.634;2022-11-23T07:51:37;41.20;;;18.50;;
21480;SDS011;10902;48.158;8.634;2022-11-23T07:54:03;38.40;;;17.20;;
21480;SDS011;10902;48.158;8.634;2022-11-23T07:56:28;41.67;;;16.55;;
21480;SDS011;10902;48.158;8.634;2022-11-23T07:58:54;40.63;;;16.48;;
21480;SDS011;10902;48.158;8.634;2022-11-23T08:01:20;41.88;;;16.08;;
21480;SDS011;10902;48.158;8.634;2022-11-23T08:03:46;35.33;;;15.35;;
21480;SDS011;10902;48.158;8.634;2022-11-23T08:06:12;31.58;;;14.52;;
21480;SDS011;10902;48.158;8.634;2022-11-23T08:08:39;28.88;;;14.18;;
21480;SDS011;10902;48.158;8.634;2022-11-23T08:11:06;27.58;;;13.35;;
21480;SDS011;10902;48.158;8.634;2022-11-23T08:13:33;28.13;;;12.57;;
21480;SDS011;10902;48.158;8.634;2022-11-23T08:15:59;27.63;;;12.93;;
21480;SDS011;10902;48.158;8.634;2022-11-23T08:18:24;26.13;;;12.50;;
21480;SDS011;10902;48.158;8.634;2022-11-23T08:20:50;26.50;;;12.40;;
21480;SDS011;10902;48.158;8.634;2022-11-23T08:23:16;18.88;;;10.38;;
21480;SDS011;10902;48.158;8.634;2022-11-23T08:25:42;20.60;;;10.50;;
21480;SDS011;10902;48.158;8.634;2022-11-23T08:28:08;18.98;;;9.32;;
21480;SDS011;10902;48.158;8.634;2022-11-23T08:30:34;20.73;;;10.30;;
21480;SDS011;10902;48.158;8.634;2022-11-23T08:33:03;18.80;;;10.07;;
21480;SDS011;10902;48.158;8.634;2022-11-23T08:35:34;16.00;;;8.40;;
21480;SDS011;10902;48.158;8.634;2022-11-23T08:38:00;15.18;;;8.18;;
21480;SDS011;10902;48.158;8.634;2022-11-23T08:40:26;14.00;;;8.48;;
21480;SDS011;10902;48.158;8.634;2022-11-23T08:42:52;16.52;;;8.23;;
21480;SDS011;10902;48.158;8.634;2022-11-23T08:45:18;12.88;;;6.25;;
21480;SDS011;10902;48.158;8.634;2022-11-23T08:47:44;9.95;;;5.63;;
21480;SDS011;10902;48.158;8.634;2022-11-23T08:50:10;10.65;;;5.70;;
21480;SDS011;10902;48.158;8.634;2022-11-23T08:52:35;11.10;;;5.35;;
21480;SDS011;10902;48.158;8.634;2022-11-23T08:55:01;8.88;;;5.20;;
21480;SDS011;10902;48.158;8.634;2022-11-23T08:57:27;9.40;;;5.38;;
21480;SDS011;10902;48.158;8.634;2022-11-23T08:59:53;10.70;;;5.25;;
21480;SDS011;10902;48.158;8.634;2022-11-23T09:02:18;15.95;;;5.82;;
21480;SDS011;10902;48.158;8.634;2022-11-23T09:04:44;9.70;;;5.32;;
21480;SDS011;10902;48.158;8.634;2022-11-23T09:07:10;6.90;;;4.30;;
21480;SDS011;10902;48.158;8.634;2022-11-23T09:09:35;8.98;;;4.72;;
21480;SDS011;10902;48.158;8.634;2022-11-23T09:12:01;7.75;;;4.00;;
21480;SDS011;10902;48.158;8.634;2022-11-23T09:14:26;10.05;;;4.55;;
21480;SDS011;10902;48.158;8.634;2022-11-23T09:16:53;10.23;;;4.57;;
21480;SDS011;10902;48.158;8.634;2022-11-23T09:19:19;8.70;;;4.70;;
21480;SDS011;10902;48.158;8.634;2022-11-23T09:21:46;8.07;;;5.43;;
21480;SDS011;10902;48.158;8.634;2022-11-23T09:24:12;8.13;;;5.13;;
21480;SDS011;10902;48.158;8.634;2022-11-23T09:26:38;9.57;;;5.50;;
21480;SDS011;10902;48.158;8.634;2022-11-23T09:29:04;10.70;;;5.10;;
21480;SDS011;10902;48.158;8.634;2022-11-23T09:31:31;8.35;;;4.75;;
21480;SDS011;10902;48.158;8.634;2022-11-23T09:33:57;9.00;;;5.22;;
21480;SDS011;10902;48.158;8.634;2022-11-23T09:36:23;8.45;;;4.40;;
21480;SDS011;10902;48.158;8.634;2022-11-23T09:38:49;9.65;;;5.20;;
21480;SDS011;10902;48.158;8.634;2022-11-23T09:44:20;8.20;;;4.53;;
21480;SDS011;10902;48.158;8.634;2022-11-23T09:52:36;9.52;;;4.90;;
21480;SDS011;10902;48.158;8.634;2022-11-23T09:55:08;9.70;;;4.60;;
21480;SDS011;10902;48.158;8.634;2022-11-23T09:57:41;7.85;;;4.18;;
21480;SDS011;10902;48.158;8.634;2022-11-23T10:00:19;9.45;;;4.40;;
21480;SDS011;10902;48.158;8.634;2022-11-23T10:02:46;7.57;;;3.75;;
21480;SDS011;10902;48.158;8.634;2022-11-23T10:05:16;8.20;;;4.53;;
21480;SDS011;10902;48.158;8.634;2022-11-23T10:16:05;5.75;;;3.40;;
21480;SDS011;10902;48.158;8.634;2022-11-23T10:24:12;7.47;;;3.20;;
21480;SDS011;10902;48.158;8.634;2022-11-23T10:26:44;6.15;;;3.33;;
21480;SDS011;10902;48.158;8.634;2022-11-23T10:29:25;7.53;;;3.55;;
21480;SDS011;10902;48.158;8.634;2022-11-23T10:31:53;7.55;;;3.30;;
21480;SDS011;10902;48.158;8.634;2022-11-23T10:34:21;5.72;;;3.03;;
21480;SDS011;10902;48.158;8.634;2022-11-23T10:37:12;5.60;;;2.92;;
21480;SDS011;10902;48.158;8.634;2022-11-23T10:39:40;5.65;;;2.50;;
21480;SDS011;10902;48.158;8.634;2022-11-23T10:42:20;5.70;;;2.65;;
21480;SDS011;10902;48.158;8.634;2022-11-23T10:45:02;7.25;;;3.00;;
21480;SDS011;10902;48.158;8.634;2022-11-23T10:47:48;6.90;;;3.03;;
21480;SDS011;10902;48.158;8.634;2022-11-23T10:50:21;6.35;;;2.83;;
21480;SDS011;10902;48.158;8.634;2022-11-23T10:52:50;6.30;;;2.70;;
21480;SDS011;10902;48.158;8.634;2022-11-23T10:55:17;6.55;;;2.33;;
21480;SDS011;10902;48.158;8.634;2022-11-23T10:57:49;4.70;;;2.53;;
21480;SDS011;10902;48.158;8.634;2022-11-23T11:00:16;4.97;;;2.42;;
21480;SDS011;10902;48.158;8.634;2022-11-23T11:02:45;5.43;;;2.53;;
21480;SDS011;10902;48.158;8.634;2022-11-23T11:05:29;6.18;;;2.53;;
21480;SDS011;10902;48.158;8.634;2022-11-23T11:08:00;6.03;;;2.58;;
21480;SDS011;10902;48.158;8.634;2022-11-23T11:13:00;7.53;;;2.80;;
21480;SDS011;10902;48.158;8.634;2022-11-23T11:15:26;6.78;;;2.70;;
21480;SDS011;10902;48.158;8.634;2022-11-23T11:17:58;6.38;;;2.80;;
21480;SDS011;10902;48.158;8.634;2022-11-23T11:22:56;4.40;;;2.35;;
21480;SDS011;10902;48.158;8.634;2022-11-23T11:27:59;4.65;;;2.30;;
21480;SDS011;10902;48.158;8.634;2022-11-23T11:30:30;5.10;;;2.10;;
21480;SDS011;10902;48.158;8.634;2022-11-23T11:33:19;6.28;;;2.10;;
21480;SDS011;10902;48.158;8.634;2022-11-23T11:35:50;5.65;;;2.10;;
21480;SDS011;10902;48.158;8.634;2022-11-23T11:38:21;6.22;;;2.45;;
21480;SDS011;10902;48.158;8.634;2022-11-23T11:40:53;5.13;;;2.00;;
21480;SDS011;10902;48.158;8.634;2022-11-23T11:43:31;6.15;;;2.03;;
21480;SDS011;10902;48.158;8.634;2022-11-23T11:46:09;5.30;;;2.08;;
21480;SDS011;10902;48.158;8.634;2022-11-23T11:48:54;4.75;;;2.13;;
21480;SDS011;10902;48.158;8.634;2022-11-23T11:54:46;4.50;;;1.55;;
21480;SDS011;10902;48.158;8.634;2022-11-23T11:57:24;4.95;;;2.28;;
21480;SDS011;10902;48.158;8.634;2022-11-23T11:59:55;7.00;;;2.45;;
21480;SDS011;10902;48.158;8.634;2022-11-23T12:02:25;6.65;;;2.25;;
21480;SDS011;10902;48.158;8.634;2022-11-23T12:10:46;4.20;;;1.63;;
21480;SDS011;10902;48.158;8.634;2022-11-23T12:13:21;4.68;;;1.40;;
21480;SDS011;10902;48.158;8.634;2022-11-23T12:15:52;5.05;;;1.70;;
21480;SDS011;10902;48.158;8.634;2022-11-23T12:21:26;3.38;;;0.95;;
21480;SDS011;10902;48.158;8.634;2022-11-23T12:30:48;3.17;;;1.08;;
21480;SDS011;10902;48.158;8.634;2022-11-23T12:33:30;2.78;;;0.80;;
21480;SDS011;10902;48.158;8.634;2022-11-23T12:41:39;4.28;;;0.80;;
21480;SDS011;10902;48.158;8.634;2022-11-23T12:50:14;3.88;;;0.90;;
21480;SDS011;10902;48.158;8.634;2022-11-23T12:53:07;4.93;;;0.98;;
21480;SDS011;10902;48.158;8.634;2022-11-23T12:58:31;3.05;;;0.98;;
21480;SDS011;10902;48.158;8.634;2022-11-23T13:09:38;4.63;;;1.00;;
21480;SDS011;10902;48.158;8.634;2022-11-23T13:13:02;4.03;;;0.90;;
21480;SDS011;10902;48.158;8.634;2022-11-23T13:24:00;4.35;;;1.00;;
21480;SDS011;10902;48.158;8.634;2022-11-23T13:26:26;3.28;;;0.98;;
21480;SDS011;10902;48.158;8.634;2022-11-23T13:28:54;3.42;;;0.85;;
21480;SDS011;10902;48.158;8.634;2022-11-23T13:31:26;6.30;;;1.90;;
21480;SDS011;10902;48.158;8.634;2022-11-23T13:33:57;3.03;;;1.00;;
21480;SDS011;10902;48.158;8.634;2022-11-23T13:38:56;3.38;;;0.80;;
21480;SDS011;10902;48.158;8.634;2022-11-23T13:44:10;4.28;;;0.93;;
21480;SDS011;10902;48.158;8.634;2022-11-23T13:46:43;3.85;;;1.00;;
21480;SDS011;10902;48.158;8.634;2022-11-23T13:49:29;4.90;;;0.90;;
21480;SDS011;10902;48.158;8.634;2022-11-23T13:54:53;3.45;;;0.85;;
21480;SDS011;10902;48.158;8.634;2022-11-23T13:57:22;5.38;;;0.88;;
21480;SDS011;10902;48.158;8.634;2022-11-23T13:59:48;3.42;;;0.70;;
21480;SDS011;10902;48.158;8.634;2022-11-23T14:02:27;4.82;;;0.82;;
21480;SDS011;10902;48.158;8.634;2022-11-23T14:07:58;5.28;;;0.80;;
21480;SDS011;10902;48.158;8.634;2022-11-23T14:10:27;3.00;;;0.90;;
21480;SDS011;10902;48.158;8.634;2022-11-23T14:15:45;5.35;;;1.30;;
21480;SDS011;10902;48.158;8.634;2022-11-23T14:21:09;2.90;;;0.80;;
21480;SDS011;10902;48.158;8.634;2022-11-23T14:23:59;3.03;;;0.80;;
21480;SDS011;10902;48.158;8.634;2022-11-23T14:26:48;4.97;;;1.15;;
21480;SDS011;10902;48.158;8.634;2022-11-23T14:34:56;4.13;;;1.13;;
21480;SDS011;10902;48.158;8.634;2022-11-23T14:38:02;4.38;;;1.00;;
21480;SDS011;10902;48.158;8.634;2022-11-23T14:43:33;4.68;;;1.25;;
21480;SDS011;10902;48.158;8.634;2022-11-23T14:46:01;4.45;;;1.23;;
21480;SDS011;10902;48.158;8.634;2022-11-23T14:48:29;3.85;;;1.13;;
21480;SDS011;10902;48.158;8.634;2022-11-23T14:51:08;5.10;;;1.13;;
21480;SDS011;10902;48.158;8.634;2022-11-23T14:53:41;5.70;;;1.08;;
21480;SDS011;10902;48.158;8.634;2022-11-23T14:59:03;5.88;;;2.05;;
21480;SDS011;10902;48.158;8.634;2022-11-23T15:01:32;6.68;;;1.33;;
21480;SDS011;10902;48.158;8.634;2022-11-23T15:03:59;5.88;;;1.30;;
21480;SDS011;10902;48.158;8.634;2022-11-23T15:06:33;5.13;;;1.02;;
21480;SDS011;10902;48.158;8.634;2022-11-23T15:09:10;5.22;;;1.02;;
21480;SDS011;10902;48.158;8.634;2022-11-23T15:11:37;3.88;;;1.20;;
21480;SDS011;10902;48.158;8.634;2022-11-23T15:14:03;5.72;;;1.13;;
21480;SDS011;10902;48.158;8.634;2022-11-23T15:16:42;4.15;;;1.33;;
21480;SDS011;10902;48.158;8.634;2022-11-23T15:21:49;4.82;;;1.27;;
21480;SDS011;10902;48.158;8.634;2022-11-23T15:24:22;5.05;;;1.38;;
21480;SDS011;10902;48.158;8.634;2022-11-23T15:26:49;4.32;;;1.38;;
21480;SDS011;10902;48.158;8.634;2022-11-23T15:29:31;9.60;;;1.73;;
21480;SDS011;10902;48.158;8.634;2022-11-23T15:31:59;6.10;;;1.30;;
21480;SDS011;10902;48.158;8.634;2022-11-23T15:34:26;3.40;;;1.27;;
21480;SDS011;10902;48.158;8.634;2022-11-23T15:36:52;9.25;;;1.52;;
21480;SDS011;10902;48.158;8.634;2022-11-23T15:39:19;6.70;;;1.35;;
21480;SDS011;10902;48.158;8.634;2022-11-23T15:41:48;4.97;;;1.80;;
21480;SDS011;10902;48.158;8.634;2022-11-23T15:44:25;6.90;;;2.28;;
21480;SDS011;10902;48.158;8.634;2022-11-23T15:46:56;5.78;;;1.95;;
21480;SDS011;10902;48.158;8.634;2022-11-23T15:49:25;8.10;;;2.38;;
21480;SDS011;10902;48.158;8.634;2022-11-23T15:51:50;6.20;;;1.95;;
21480;SDS011;10902;48.158;8.634;2022-11-23T15:54:22;7.22;;;3.40;;
21480;SDS011;10902;48.158;8.634;2022-11-23T15:56:51;8.05;;;1.75;;
21480;SDS011;10902;48.158;8.634;2022-11-23T15:59:25;3.88;;;1.65;;
21480;SDS011;10902;48.158;8.634;2022-11-23T16:01:51;5.43;;;2.00;;
21480;SDS011;10902;48.158;8.634;2022-11-23T16:04:26;6.63;;;2.05;;
21480;SDS011;10902;48.158;8.634;2022-11-23T16:06:51;6.85;;;2.17;;
21480;SDS011;10902;48.158;8.634;2022-11-23T16:09:35;5.55;;;2.17;;
21480;SDS011;10902;48.158;8.634;2022-11-23T16:12:01;5.43;;;2.08;;
21480;SDS011;10902;48.158;8.634;2022-11-23T16:14:28;6.82;;;1.90;;
21480;SDS011;10902;48.158;8.634;2022-11-23T16:19:29;7.78;;;2.10;;
21480;SDS011;10902;48.158;8.634;2022-11-23T16:22:02;4.07;;;1.98;;
21480;SDS011;10902;48.158;8.634;2022-11-23T16:24:41;8.07;;;2.58;;
21480;SDS011;10902;48.158;8.634;2022-11-23T16:27:19;7.57;;;3.58;;
21480;SDS011;10902;48.158;8.634;2022-11-23T16:29:50;8.25;;;4.00;;
21480;SDS011;10902;48.158;8.634;2022-11-23T16:32:23;8.40;;;4.35;;
21480;SDS011;10902;48.158;8.634;2022-11-23T16:35:17;7.35;;;3.30;;
21480;SDS011;10902;48.158;8.634;2022-11-23T16:37:42;6.43;;;3.40;;
21480;SDS011;10902;48.158;8.634;2022-11-23T16:40:08;6.85;;;3.75;;
21480;SDS011;10902;48.158;8.634;2022-11-23T16:42:35;9.35;;;4.55;;
21480;SDS011;10902;48.158;8.634;2022-11-23T16:45:00;9.23;;;4.57;;
21480;SDS011;10902;48.158;8.634;2022-11-23T16:47:26;10.43;;;4.88;;
21480;SDS011;10902;48.158;8.634;2022-11-23T16:49:54;11.27;;;5.22;;
21480;SDS011;10902;48.158;8.634;2022-11-23T16:52:19;10.52;;;5.07;;